sensor_id;sensor_type;location;lat;lon;timestamp;temperature;humidity
15450;DHT22;7826;49.784;9.934;2022-10-16T00:01:20;15.80;99.90
15450;DHT22;7826;49.784;9.934;2022-10-16T00:03:47;15.80;99.90
15450;DHT22;7826;49.784;9.934;2022-10-16T00:06:15;15.80;99.90
15450;DHT22;7826;49.784;9.934;2022-10-16T00:08:42;15.80;99.90
15450;DHT22;7826;49.784;9.934;2022-10-16T00:11:14;15.70;99.90
15450;DHT22;7826;49.784;9.934;2022-10-16T00:13:42;15.70;99.90
15450;DHT22;7826;49.784;9.934;2022-10-16T00:16:09;15.70;99.90
15450;DHT22;7826;49.784;9.934;2022-10-16T00:18:36;15.70;99.90
15450;DHT22;7826;49.784;9.934;2022-10-16T00:21:14;15.70;99.90
15450;DHT22;7826;49.784;9.934;2022-10-16T00:23:40;15.70;99.90
15450;DHT22;7826;49.784;9.934;2022-10-16T00:26:10;15.70;99.90
15450;DHT22;7826;49.784;9.934;2022-10-16T00:28:36;15.70;99.90
15450;DHT22;7826;49.784;9.934;2022-10-16T00:31:05;15.70;99.90
15450;DHT22;7826;49.784;9.934;2022-10-16T00:33:32;15.70;99.90
15450;DHT22;7826;49.784;9.934;2022-10-16T00:35:59;15.70;99.90
15450;DHT22;7826;49.784;9.934;2022-10-16T00:38:26;15.70;99.90
15450;DHT22;7826;49.784;9.934;2022-10-16T00:40:52;15.60;99.90
15450;DHT22;7826;49.784;9.934;2022-10-16T00:46:41;15.60;99.90
15450;DHT22;7826;49.784;9.934;2022-10-16T00:49:18;15.60;99.90
15450;DHT22;7826;49.784;9.934;2022-10-16T00:51:49;15.60;99.90
15450;DHT22;7826;49.784;9.934;2022-10-16T00:54:27;15.60;99.90
15450;DHT22;7826;49.784;9.934;2022-10-16T00:56:57;15.60;99.90
15450;DHT22;7826;49.784;9.934;2022-10-16T00:59:28;15.60;99.90
15450;DHT22;7826;49.784;9.934;2022-10-16T01:01:56;15.60;99.90
15450;DHT22;7826;49.784;9.934;2022-10-16T01:04:24;15.60;99.90
15450;DHT22;7826;49.784;9.934;2022-10-16T01:12:23;15.50;99.90
15450;DHT22;7826;49.784;9.934;2022-10-16T01:14:58;15.50;99.90
15450;DHT22;7826;49.784;9.934;2022-10-16T01:17:41;15.50;99.90
15450;DHT22;7826;49.784;9.934;2022-10-16T01:20:20;15.50;99.90
15450;DHT22;7826;49.784;9.934;2022-10-16T01:28:24;15.50;99.90
15450;DHT22;7826;49.784;9.934;2022-10-16T01:30:54;15.50;99.90
15450;DHT22;7826;49.784;9.934;2022-10-16T01:33:35;15.50;99.90
15450;DHT22;7826;49.784;9.934;2022-10-16T01:36:18;15.50;99.90
15450;DHT22;7826;49.784;9.934;2022-10-16T01:38:50;15.50;99.90
15450;DHT22;7826;49.784;9.934;2022-10-16T01:41:36;15.50;99.90
15450;DHT22;7826;49.784;9.934;2022-10-16T01:46:46;15.50;99.90
15450;DHT22;7826;49.784;9.934;2022-10-16T01:49:14;15.50;99.90
15450;DHT22;7826;49.784;9.934;2022-10-16T01:51:44;15.50;99.90
15450;DHT22;7826;49.784;9.934;2022-10-16T01:54:13;15.50;99.90
15450;DHT22;7826;49.784;9.934;2022-10-16T01:56:41;15.60;99.90
15450;DHT22;7826;49.784;9.934;2022-10-16T01:59:18;15.60;99.90
15450;DHT22;7826;49.784;9.934;2022-10-16T02:01:49;15.60;99.90
15450;DHT22;7826;49.784;9.934;2022-10-16T02:04:33;15.60;99.90
15450;DHT22;7826;49.784;9.934;2022-10-16T02:07:00;15.60;99.90
15450;DHT22;7826;49.784;9.934;2022-10-16T02:09:26;15.60;99.90
15450;DHT22;7826;49.784;9.934;2022-10-16T02:11:55;15.60;99.90
15450;DHT22;7826;49.784;9.934;2022-10-16T02:14:23;15.60;99.90
15450;DHT22;7826;49.784;9.934;2022-10-16T02:16:50;15.60;99.90
15450;DHT22;7826;49.784;9.934;2022-10-16T02:19:18;15.60;99.90
15450;DHT22;7826;49.784;9.934;2022-10-16T02:22:02;15.50;99.90
15450;DHT22;7826;49.784;9.934;2022-10-16T02:24:33;15.50;99.90
15450;DHT22;7826;49.784;9.934;2022-10-16T02:27:06;15.50;99.90
15450;DHT22;7826;49.784;9.934;2022-10-16T02:29:40;15.50;99.90
15450;DHT22;7826;49.784;9.934;2022-10-16T02:32:08;15.50;99.90
15450;DHT22;7826;49.784;9.934;2022-10-16T02:34:36;15.50;99.90
15450;DHT22;7826;49.784;9.934;2022-10-16T02:37:04;15.40;99.90
15450;DHT22;7826;49.784;9.934;2022-10-16T02:39:31;15.50;99.90
15450;DHT22;7826;49.784;9.934;2022-10-16T02:41:58;15.40;99.90
15450;DHT22;7826;49.784;9.934;2022-10-16T02:44:24;15.40;99.90
15450;DHT22;7826;49.784;9.934;2022-10-16T02:46:51;15.40;99.90
15450;DHT22;7826;49.784;9.934;2022-10-16T02:49:17;15.40;99.90
15450;DHT22;7826;49.784;9.934;2022-10-16T02:51:44;15.40;99.90
15450;DHT22;7826;49.784;9.934;2022-10-16T02:54:11;15.40;99.90
15450;DHT22;7826;49.784;9.934;2022-10-16T02:56:37;15.40;99.90
15450;DHT22;7826;49.784;9.934;2022-10-16T02:59:03;15.40;99.90
15450;DHT22;7826;49.784;9.934;2022-10-16T03:01:30;15.40;99.90
15450;DHT22;7826;49.784;9.934;2022-10-16T03:03:56;15.40;99.90
15450;DHT22;7826;49.784;9.934;2022-10-16T03:06:22;15.40;99.90
15450;DHT22;7826;49.784;9.934;2022-10-16T03:08:49;15.40;99.90
15450;DHT22;7826;49.784;9.934;2022-10-16T03:11:15;15.40;99.90
15450;DHT22;7826;49.784;9.934;2022-10-16T03:13:41;15.40;99.90
15450;DHT22;7826;49.784;9.934;2022-10-16T03:16:08;15.40;99.90
15450;DHT22;7826;49.784;9.934;2022-10-16T03:18:34;15.30;99.90
15450;DHT22;7826;49.784;9.934;2022-10-16T03:21:00;15.30;99.90
15450;DHT22;7826;49.784;9.934;2022-10-16T03:23:26;15.30;99.90
15450;DHT22;7826;49.784;9.934;2022-10-16T03:25:53;15.30;99.90
15450;DHT22;7826;49.784;9.934;2022-10-16T03:28:20;15.20;99.90
15450;DHT22;7826;49.784;9.934;2022-10-16T03:30:46;15.20;99.90
15450;DHT22;7826;49.784;9.934;2022-10-16T03:33:12;15.20;99.90
15450;DHT22;7826;49.784;9.934;2022-10-16T03:35:38;15.20;99.90
15450;DHT22;7826;49.784;9.934;2022-10-16T03:38:05;15.20;99.90
15450;DHT22;7826;49.784;9.934;2022-10-16T03:40:31;15.20;99.90
15450;DHT22;7826;49.784;9.934;2022-10-16T03:42:59;15.20;99.90
15450;DHT22;7826;49.784;9.934;2022-10-16T03:45:25;15.10;99.90
15450;DHT22;7826;49.784;9.934;2022-10-16T03:47:52;15.20;99.90
15450;DHT22;7826;49.784;9.934;2022-10-16T03:50:19;15.10;99.90
15450;DHT22;7826;49.784;9.934;2022-10-16T03:52:45;15.10;99.90
15450;DHT22;7826;49.784;9.934;2022-10-16T03:55:12;15.10;99.90
15450;DHT22;7826;49.784;9.934;2022-10-16T03:57:38;15.20;99.90
15450;DHT22;7826;49.784;9.934;2022-10-16T04:00:05;15.20;99.90
15450;DHT22;7826;49.784;9.934;2022-10-16T04:02:31;15.10;99.90
15450;DHT22;7826;49.784;9.934;2022-10-16T04:04:57;15.10;99.90
15450;DHT22;7826;49.784;9.934;2022-10-16T04:07:23;15.10;99.90
15450;DHT22;7826;49.784;9.934;2022-10-16T04:09:50;15.10;99.90
15450;DHT22;7826;49.784;9.934;2022-10-16T04:12:18;15.10;99.90
15450;DHT22;7826;49.784;9.934;2022-10-16T04:14:44;15.10;99.90
15450;DHT22;7826;49.784;9.934;2022-10-16T04:17:10;15.10;99.90
15450;DHT22;7826;49.784;9.934;2022-10-16T04:19:36;15.20;99.90
15450;DHT22;7826;49.784;9.934;2022-10-16T04:22:02;15.20;99.90
15450;DHT22;7826;49.784;9.934;2022-10-16T04:24:29;15.20;99.90
15450;DHT22;7826;49.784;9.934;2022-10-16T04:26:55;15.20;99.90
15450;DHT22;7826;49.784;9.934;2022-10-16T04:29:21;15.20;99.90
15450;DHT22;7826;49.784;9.934;2022-10-16T04:31:48;15.20;99.90
15450;DHT22;7826;49.784;9.934;2022-10-16T04:34:14;15.20;99.90
15450;DHT22;7826;49.784;9.934;2022-10-16T04:36:40;15.20;99.90
15450;DHT22;7826;49.784;9.934;2022-10-16T04:39:07;15.20;99.90
15450;DHT22;7826;49.784;9.934;2022-10-16T04:41:34;15.20;99.90
15450;DHT22;7826;49.784;9.934;2022-10-16T04:44:00;15.20;99.90
15450;DHT22;7826;49.784;9.934;2022-10-16T04:46:26;15.20;99.90
15450;DHT22;7826;49.784;9.934;2022-10-16T04:48:53;15.20;99.90
15450;DHT22;7826;49.784;9.934;2022-10-16T04:51:19;15.20;99.90
15450;DHT22;7826;49.784;9.934;2022-10-16T04:53:46;15.20;99.90
15450;DHT22;7826;49.784;9.934;2022-10-16T04:56:12;15.20;99.90
15450;DHT22;7826;49.784;9.934;2022-10-16T04:58:38;15.20;99.90
15450;DHT22;7826;49.784;9.934;2022-10-16T05:01:04;15.20;99.90
15450;DHT22;7826;49.784;9.934;2022-10-16T05:03:31;15.20;99.90
15450;DHT22;7826;49.784;9.934;2022-10-16T05:05:57;15.20;99.90
15450;DHT22;7826;49.784;9.934;2022-10-16T05:08:23;15.20;99.90
15450;DHT22;7826;49.784;9.934;2022-10-16T05:10:50;15.20;99.90
15450;DHT22;7826;49.784;9.934;2022-10-16T05:13:16;15.20;99.90
15450;DHT22;7826;49.784;9.934;2022-10-16T05:15:46;15.20;99.90
15450;DHT22;7826;49.784;9.934;2022-10-16T05:18:12;15.10;99.90
15450;DHT22;7826;49.784;9.934;2022-10-16T05:20:38;15.20;99.90
15450;DHT22;7826;49.784;9.934;2022-10-16T05:23:04;15.10;99.90
15450;DHT22;7826;49.784;9.934;2022-10-16T05:25:31;15.10;99.90
15450;DHT22;7826;49.784;9.934;2022-10-16T05:27:57;15.10;99.90
15450;DHT22;7826;49.784;9.934;2022-10-16T05:30:23;15.10;99.90
15450;DHT22;7826;49.784;9.934;2022-10-16T05:32:51;15.10;99.90
15450;DHT22;7826;49.784;9.934;2022-10-16T05:35:18;15.10;99.90
15450;DHT22;7826;49.784;9.934;2022-10-16T05:37:45;15.10;99.90
15450;DHT22;7826;49.784;9.934;2022-10-16T05:40:12;15.10;99.90
15450;DHT22;7826;49.784;9.934;2022-10-16T05:45:08;15.10;99.90
15450;DHT22;7826;49.784;9.934;2022-10-16T05:47:35;15.10;99.90
15450;DHT22;7826;49.784;9.934;2022-10-16T05:50:02;15.10;99.90
15450;DHT22;7826;49.784;9.934;2022-10-16T05:52:30;15.10;99.90
15450;DHT22;7826;49.784;9.934;2022-10-16T05:54:56;15.10;99.90
15450;DHT22;7826;49.784;9.934;2022-10-16T05:57:22;15.10;99.90
15450;DHT22;7826;49.784;9.934;2022-10-16T05:59:49;15.10;99.90
15450;DHT22;7826;49.784;9.934;2022-10-16T06:02:15;15.20;99.90
15450;DHT22;7826;49.784;9.934;2022-10-16T06:04:41;15.20;99.90
15450;DHT22;7826;49.784;9.934;2022-10-16T06:07:08;15.20;99.90
15450;DHT22;7826;49.784;9.934;2022-10-16T06:09:34;15.20;99.90
15450;DHT22;7826;49.784;9.934;2022-10-16T06:12:01;15.20;99.90
15450;DHT22;7826;49.784;9.934;2022-10-16T06:14:27;15.20;99.90
15450;DHT22;7826;49.784;9.934;2022-10-16T06:16:53;15.20;99.90
15450;DHT22;7826;49.784;9.934;2022-10-16T06:19:19;15.20;99.90
15450;DHT22;7826;49.784;9.934;2022-10-16T06:21:46;15.20;99.90
15450;DHT22;7826;49.784;9.934;2022-10-16T06:24:12;15.20;99.90
15450;DHT22;7826;49.784;9.934;2022-10-16T06:26:39;15.20;99.90
15450;DHT22;7826;49.784;9.934;2022-10-16T06:29:05;15.20;99.90
15450;DHT22;7826;49.784;9.934;2022-10-16T06:31:31;15.20;99.90
15450;DHT22;7826;49.784;9.934;2022-10-16T06:33:59;15.20;99.90
15450;DHT22;7826;49.784;9.934;2022-10-16T06:36:26;15.20;99.90
15450;DHT22;7826;49.784;9.934;2022-10-16T06:38:53;15.30;99.90
15450;DHT22;7826;49.784;9.934;2022-10-16T06:41:21;15.30;99.90
15450;DHT22;7826;49.784;9.934;2022-10-16T06:43:48;15.30;99.90
15450;DHT22;7826;49.784;9.934;2022-10-16T06:46:16;15.30;99.90
15450;DHT22;7826;49.784;9.934;2022-10-16T06:48:43;15.30;99.90
15450;DHT22;7826;49.784;9.934;2022-10-16T06:51:15;15.40;99.90
15450;DHT22;7826;49.784;9.934;2022-10-16T06:53:47;15.50;99.90
15450;DHT22;7826;49.784;9.934;2022-10-16T06:56:20;15.60;99.90
15450;DHT22;7826;49.784;9.934;2022-10-16T06:58:47;15.70;99.90
15450;DHT22;7826;49.784;9.934;2022-10-16T07:01:16;15.70;99.90
15450;DHT22;7826;49.784;9.934;2022-10-16T07:03:44;15.80;99.90
15450;DHT22;7826;49.784;9.934;2022-10-16T07:06:13;15.70;99.90
15450;DHT22;7826;49.784;9.934;2022-10-16T07:08:41;15.80;99.90
15450;DHT22;7826;49.784;9.934;2022-10-16T07:11:13;15.80;99.90
15450;DHT22;7826;49.784;9.934;2022-10-16T07:13:41;15.80;99.90
15450;DHT22;7826;49.784;9.934;2022-10-16T07:16:14;15.80;99.90
15450;DHT22;7826;49.784;9.934;2022-10-16T07:18:41;15.80;99.90
15450;DHT22;7826;49.784;9.934;2022-10-16T07:21:20;15.80;99.90
15450;DHT22;7826;49.784;9.934;2022-10-16T07:23:52;15.90;99.90
15450;DHT22;7826;49.784;9.934;2022-10-16T07:26:19;15.90;99.90
15450;DHT22;7826;49.784;9.934;2022-10-16T07:28:45;16.00;99.90
15450;DHT22;7826;49.784;9.934;2022-10-16T07:31:13;16.00;99.90
15450;DHT22;7826;49.784;9.934;2022-10-16T07:33:41;16.00;99.90
15450;DHT22;7826;49.784;9.934;2022-10-16T07:36:11;16.00;99.90
15450;DHT22;7826;49.784;9.934;2022-10-16T07:38:37;15.90;99.90
15450;DHT22;7826;49.784;9.934;2022-10-16T07:41:06;15.80;99.90
15450;DHT22;7826;49.784;9.934;2022-10-16T07:43:33;15.70;99.90
15450;DHT22;7826;49.784;9.934;2022-10-16T07:46:00;15.70;99.90
15450;DHT22;7826;49.784;9.934;2022-10-16T07:48:28;15.70;99.90
15450;DHT22;7826;49.784;9.934;2022-10-16T07:51:03;15.70;99.90
15450;DHT22;7826;49.784;9.934;2022-10-16T07:53:31;15.80;99.90
15450;DHT22;7826;49.784;9.934;2022-10-16T07:56:02;15.80;99.90
15450;DHT22;7826;49.784;9.934;2022-10-16T07:58:29;15.90;99.90
15450;DHT22;7826;49.784;9.934;2022-10-16T08:00:56;15.90;99.90
15450;DHT22;7826;49.784;9.934;2022-10-16T08:03:24;16.00;99.90
15450;DHT22;7826;49.784;9.934;2022-10-16T08:05:50;15.90;99.90
15450;DHT22;7826;49.784;9.934;2022-10-16T08:08:17;15.90;99.90
15450;DHT22;7826;49.784;9.934;2022-10-16T08:10:44;15.90;99.90
15450;DHT22;7826;49.784;9.934;2022-10-16T08:13:10;15.80;99.90
15450;DHT22;7826;49.784;9.934;2022-10-16T08:15:37;15.80;99.90
15450;DHT22;7826;49.784;9.934;2022-10-16T08:18:05;15.90;99.90
15450;DHT22;7826;49.784;9.934;2022-10-16T08:20:32;15.90;99.90
15450;DHT22;7826;49.784;9.934;2022-10-16T08:23:00;16.10;99.90
15450;DHT22;7826;49.784;9.934;2022-10-16T08:25:27;16.10;99.90
15450;DHT22;7826;49.784;9.934;2022-10-16T08:27:53;16.20;99.90
15450;DHT22;7826;49.784;9.934;2022-10-16T08:30:22;16.20;99.90
15450;DHT22;7826;49.784;9.934;2022-10-16T08:32:49;16.20;99.90
15450;DHT22;7826;49.784;9.934;2022-10-16T08:35:15;16.30;99.90
15450;DHT22;7826;49.784;9.934;2022-10-16T08:37:42;16.40;99.90
15450;DHT22;7826;49.784;9.934;2022-10-16T08:40:36;16.40;99.90
15450;DHT22;7826;49.784;9.934;2022-10-16T08:48:54;16.60;99.90
15450;DHT22;7826;49.784;9.934;2022-10-16T08:51:27;16.60;99.90
15450;DHT22;7826;49.784;9.934;2022-10-16T08:54:01;16.70;99.90
15450;DHT22;7826;49.784;9.934;2022-10-16T08:56:28;16.70;99.90
15450;DHT22;7826;49.784;9.934;2022-10-16T08:58:57;16.70;99.90
15450;DHT22;7826;49.784;9.934;2022-10-16T09:01:25;16.70;99.90
15450;DHT22;7826;49.784;9.934;2022-10-16T09:17:44;16.80;99.90
15450;DHT22;7826;49.784;9.934;2022-10-16T09:20:20;16.80;99.90
15450;DHT22;7826;49.784;9.934;2022-10-16T09:23:17;16.70;99.90
15450;DHT22;7826;49.784;9.934;2022-10-16T09:25:47;16.70;99.90
15450;DHT22;7826;49.784;9.934;2022-10-16T09:28:15;16.80;99.90
15450;DHT22;7826;49.784;9.934;2022-10-16T09:30:41;16.80;99.90
15450;DHT22;7826;49.784;9.934;2022-10-16T09:33:10;16.80;99.90
15450;DHT22;7826;49.784;9.934;2022-10-16T09:38:06;16.90;99.90
15450;DHT22;7826;49.784;9.934;2022-10-16T09:40:37;16.80;99.90
15450;DHT22;7826;49.784;9.934;2022-10-16T09:43:40;16.80;99.90
15450;DHT22;7826;49.784;9.934;2022-10-16T09:46:19;16.70;99.90
15450;DHT22;7826;49.784;9.934;2022-10-16T09:48:51;16.60;99.90
15450;DHT22;7826;49.784;9.934;2022-10-16T09:51:21;16.70;99.90
15450;DHT22;7826;49.784;9.934;2022-10-16T09:53:48;16.80;99.90
15450;DHT22;7826;49.784;9.934;2022-10-16T09:56:26;16.80;99.90
15450;DHT22;7826;49.784;9.934;2022-10-16T09:58:58;16.90;99.90
15450;DHT22;7826;49.784;9.934;2022-10-16T10:01:55;16.90;99.90
15450;DHT22;7826;49.784;9.934;2022-10-16T10:04:23;17.00;99.90
15450;DHT22;7826;49.784;9.934;2022-10-16T10:06:53;17.00;99.90
15450;DHT22;7826;49.784;9.934;2022-10-16T10:09:26;17.10;99.90
15450;DHT22;7826;49.784;9.934;2022-10-16T10:17:13;17.00;99.90
15450;DHT22;7826;49.784;9.934;2022-10-16T10:22:26;17.00;99.90
15450;DHT22;7826;49.784;9.934;2022-10-16T10:30:56;17.00;99.90
15450;DHT22;7826;49.784;9.934;2022-10-16T10:47:04;16.60;99.90
15450;DHT22;7826;49.784;9.934;2022-10-16T10:58:26;16.90;99.90
15450;DHT22;7826;49.784;9.934;2022-10-16T11:01:12;17.10;99.90
15450;DHT22;7826;49.784;9.934;2022-10-16T11:06:40;17.60;99.90
15450;DHT22;7826;49.784;9.934;2022-10-16T11:09:13;17.70;99.90
15450;DHT22;7826;49.784;9.934;2022-10-16T11:11:45;17.70;99.90
15450;DHT22;7826;49.784;9.934;2022-10-16T11:14:35;17.70;99.90
15450;DHT22;7826;49.784;9.934;2022-10-16T11:17:12;17.80;99.90
15450;DHT22;7826;49.784;9.934;2022-10-16T11:19:56;17.70;99.90
15450;DHT22;7826;49.784;9.934;2022-10-16T11:22:32;17.60;99.90
15450;DHT22;7826;49.784;9.934;2022-10-16T11:30:27;17.10;99.90
15450;DHT22;7826;49.784;9.934;2022-10-16T11:40:44;17.30;99.90
15450;DHT22;7826;49.784;9.934;2022-10-16T11:43:20;17.40;99.90
15450;DHT22;7826;49.784;9.934;2022-10-16T11:45:57;17.60;99.90
15450;DHT22;7826;49.784;9.934;2022-10-16T11:48:39;17.70;99.90
15450;DHT22;7826;49.784;9.934;2022-10-16T11:56:56;17.50;99.90
15450;DHT22;7826;49.784;9.934;2022-10-16T12:02:29;17.70;99.90
15450;DHT22;7826;49.784;9.934;2022-10-16T12:05:34;17.90;99.90
15450;DHT22;7826;49.784;9.934;2022-10-16T12:08:16;18.00;99.90
15450;DHT22;7826;49.784;9.934;2022-10-16T12:10:44;18.10;99.90
15450;DHT22;7826;49.784;9.934;2022-10-16T12:13:31;18.00;99.90
15450;DHT22;7826;49.784;9.934;2022-10-16T12:18:44;17.90;99.90
15450;DHT22;7826;49.784;9.934;2022-10-16T12:21:12;17.90;99.90
15450;DHT22;7826;49.784;9.934;2022-10-16T12:23:54;18.00;99.90
15450;DHT22;7826;49.784;9.934;2022-10-16T12:26:42;18.10;99.90
15450;DHT22;7826;49.784;9.934;2022-10-16T12:29:29;18.00;99.90
15450;DHT22;7826;49.784;9.934;2022-10-16T12:31:56;18.10;99.90
15450;DHT22;7826;49.784;9.934;2022-10-16T12:36:51;18.10;99.90
15450;DHT22;7826;49.784;9.934;2022-10-16T12:39:23;18.10;99.90
15450;DHT22;7826;49.784;9.934;2022-10-16T12:44:52;18.20;99.90
15450;DHT22;7826;49.784;9.934;2022-10-16T12:47:21;18.30;99.90
15450;DHT22;7826;49.784;9.934;2022-10-16T12:49:53;18.40;99.90
15450;DHT22;7826;49.784;9.934;2022-10-16T12:52:46;18.40;99.90
15450;DHT22;7826;49.784;9.934;2022-10-16T12:55:18;18.40;99.90
15450;DHT22;7826;49.784;9.934;2022-10-16T13:00:49;18.40;99.90
15450;DHT22;7826;49.784;9.934;2022-10-16T13:08:55;18.40;99.90
15450;DHT22;7826;49.784;9.934;2022-10-16T13:11:43;18.50;99.90
15450;DHT22;7826;49.784;9.934;2022-10-16T13:30:19;18.60;99.90
15450;DHT22;7826;49.784;9.934;2022-10-16T13:32:48;18.60;99.90
15450;DHT22;7826;49.784;9.934;2022-10-16T13:35:27;18.60;99.90
15450;DHT22;7826;49.784;9.934;2022-10-16T13:38:24;18.60;99.90
15450;DHT22;7826;49.784;9.934;2022-10-16T13:43:43;18.50;99.90
15450;DHT22;7826;49.784;9.934;2022-10-16T13:46:18;18.40;99.90
15450;DHT22;7826;49.784;9.934;2022-10-16T13:49:00;18.40;99.90
15450;DHT22;7826;49.784;9.934;2022-10-16T13:51:28;18.40;99.90
15450;DHT22;7826;49.784;9.934;2022-10-16T13:53:56;18.40;99.90
15450;DHT22;7826;49.784;9.934;2022-10-16T13:56:28;18.50;99.90
15450;DHT22;7826;49.784;9.934;2022-10-16T13:59:36;18.50;99.90
15450;DHT22;7826;49.784;9.934;2022-10-16T14:05:02;18.60;99.90
15450;DHT22;7826;49.784;9.934;2022-10-16T14:07:31;18.60;99.90
15450;DHT22;7826;49.784;9.934;2022-10-16T14:10:04;18.60;99.90
15450;DHT22;7826;49.784;9.934;2022-10-16T14:12:31;18.70;99.90
15450;DHT22;7826;49.784;9.934;2022-10-16T14:14:59;18.80;99.90
15450;DHT22;7826;49.784;9.934;2022-10-16T14:17:27;18.80;99.90
15450;DHT22;7826;49.784;9.934;2022-10-16T14:19:56;18.80;99.90
15450;DHT22;7826;49.784;9.934;2022-10-16T14:22:37;18.80;99.90
15450;DHT22;7826;49.784;9.934;2022-10-16T14:25:36;18.90;99.90
15450;DHT22;7826;49.784;9.934;2022-10-16T14:28:04;18.90;99.90
15450;DHT22;7826;49.784;9.934;2022-10-16T14:30:34;19.00;99.90
15450;DHT22;7826;49.784;9.934;2022-10-16T14:33:04;18.90;99.90
15450;DHT22;7826;49.784;9.934;2022-10-16T14:35:36;18.70;99.90
15450;DHT22;7826;49.784;9.934;2022-10-16T14:38:04;18.60;99.90
15450;DHT22;7826;49.784;9.934;2022-10-16T14:40:35;18.60;99.90
15450;DHT22;7826;49.784;9.934;2022-10-16T14:43:03;18.60;99.90
15450;DHT22;7826;49.784;9.934;2022-10-16T14:45:33;18.60;99.90
15450;DHT22;7826;49.784;9.934;2022-10-16T14:48:03;18.50;99.90
15450;DHT22;7826;49.784;9.934;2022-10-16T14:50:30;18.60;99.90
15450;DHT22;7826;49.784;9.934;2022-10-16T14:52:58;18.50;99.90
15450;DHT22;7826;49.784;9.934;2022-10-16T14:55:25;18.50;99.90
15450;DHT22;7826;49.784;9.934;2022-10-16T14:57:51;18.50;99.90
15450;DHT22;7826;49.784;9.934;2022-10-16T15:00:23;18.40;99.90
15450;DHT22;7826;49.784;9.934;2022-10-16T15:02:50;18.40;99.90
15450;DHT22;7826;49.784;9.934;2022-10-16T15:05:25;18.50;99.90
15450;DHT22;7826;49.784;9.934;2022-10-16T15:07:53;18.50;99.90
15450;DHT22;7826;49.784;9.934;2022-10-16T15:10:22;18.60;99.90
15450;DHT22;7826;49.784;9.934;2022-10-16T15:12:48;18.60;99.90
15450;DHT22;7826;49.784;9.934;2022-10-16T15:17:54;18.60;99.90
15450;DHT22;7826;49.784;9.934;2022-10-16T15:20:32;18.60;99.90
15450;DHT22;7826;49.784;9.934;2022-10-16T15:23:05;18.60;99.90
15450;DHT22;7826;49.784;9.934;2022-10-16T15:28:09;18.60;99.90
15450;DHT22;7826;49.784;9.934;2022-10-16T15:30:36;18.50;99.90
15450;DHT22;7826;49.784;9.934;2022-10-16T15:33:04;18.40;99.90
15450;DHT22;7826;49.784;9.934;2022-10-16T15:35:30;18.40;99.90
15450;DHT22;7826;49.784;9.934;2022-10-16T15:37:57;18.40;99.90
15450;DHT22;7826;49.784;9.934;2022-10-16T15:40:24;18.40;99.90
15450;DHT22;7826;49.784;9.934;2022-10-16T15:42:50;18.30;99.90
15450;DHT22;7826;49.784;9.934;2022-10-16T15:45:17;18.30;99.90
15450;DHT22;7826;49.784;9.934;2022-10-16T15:47:45;18.20;99.90
15450;DHT22;7826;49.784;9.934;2022-10-16T15:50:13;18.20;99.90
15450;DHT22;7826;49.784;9.934;2022-10-16T15:52:41;18.20;99.90
15450;DHT22;7826;49.784;9.934;2022-10-16T15:55:09;18.20;99.90
15450;DHT22;7826;49.784;9.934;2022-10-16T15:57:36;18.20;99.90
15450;DHT22;7826;49.784;9.934;2022-10-16T16:00:09;18.20;99.90
15450;DHT22;7826;49.784;9.934;2022-10-16T16:02:36;18.40;99.90
15450;DHT22;7826;49.784;9.934;2022-10-16T16:05:03;18.20;99.90
15450;DHT22;7826;49.784;9.934;2022-10-16T16:07:33;18.10;99.90
15450;DHT22;7826;49.784;9.934;2022-10-16T16:10:00;18.10;99.90
15450;DHT22;7826;49.784;9.934;2022-10-16T16:12:26;18.10;99.90
15450;DHT22;7826;49.784;9.934;2022-10-16T16:14:52;18.10;99.90
15450;DHT22;7826;49.784;9.934;2022-10-16T16:17:18;18.00;99.90
15450;DHT22;7826;49.784;9.934;2022-10-16T16:19:45;18.00;99.90
15450;DHT22;7826;49.784;9.934;2022-10-16T16:22:12;18.00;99.90
15450;DHT22;7826;49.784;9.934;2022-10-16T16:24:39;18.00;99.90
15450;DHT22;7826;49.784;9.934;2022-10-16T16:27:07;17.90;99.90
15450;DHT22;7826;49.784;9.934;2022-10-16T16:29:33;17.90;99.90
15450;DHT22;7826;49.784;9.934;2022-10-16T16:32:00;17.90;99.90
15450;DHT22;7826;49.784;9.934;2022-10-16T16:34:27;17.80;99.90
15450;DHT22;7826;49.784;9.934;2022-10-16T16:36:55;17.80;99.90
15450;DHT22;7826;49.784;9.934;2022-10-16T16:39:22;17.70;99.90
15450;DHT22;7826;49.784;9.934;2022-10-16T16:41:48;17.70;99.90
15450;DHT22;7826;49.784;9.934;2022-10-16T16:44:16;17.70;99.90
15450;DHT22;7826;49.784;9.934;2022-10-16T16:46:43;17.60;99.90
15450;DHT22;7826;49.784;9.934;2022-10-16T16:49:12;17.60;99.90
15450;DHT22;7826;49.784;9.934;2022-10-16T16:51:39;17.50;99.90
15450;DHT22;7826;49.784;9.934;2022-10-16T16:54:06;17.50;99.90
15450;DHT22;7826;49.784;9.934;2022-10-16T16:56:34;17.40;99.90
15450;DHT22;7826;49.784;9.934;2022-10-16T16:59:00;17.40;99.90
15450;DHT22;7826;49.784;9.934;2022-10-16T17:01:28;17.40;99.90
15450;DHT22;7826;49.784;9.934;2022-10-16T17:03:56;17.30;99.90
15450;DHT22;7826;49.784;9.934;2022-10-16T17:06:27;17.40;99.90
15450;DHT22;7826;49.784;9.934;2022-10-16T17:08:55;17.30;99.90
15450;DHT22;7826;49.784;9.934;2022-10-16T17:11:24;17.30;99.90
15450;DHT22;7826;49.784;9.934;2022-10-16T17:13:52;17.30;99.90
15450;DHT22;7826;49.784;9.934;2022-10-16T17:16:21;17.20;99.90
15450;DHT22;7826;49.784;9.934;2022-10-16T17:18:48;17.10;99.90
15450;DHT22;7826;49.784;9.934;2022-10-16T17:21:15;17.10;99.90
15450;DHT22;7826;49.784;9.934;2022-10-16T17:23:41;17.00;99.90
15450;DHT22;7826;49.784;9.934;2022-10-16T17:26:11;16.90;99.90
15450;DHT22;7826;49.784;9.934;2022-10-16T17:28:38;16.90;99.90
15450;DHT22;7826;49.784;9.934;2022-10-16T17:31:10;16.80;99.90
15450;DHT22;7826;49.784;9.934;2022-10-16T17:33:37;16.80;99.90
15450;DHT22;7826;49.784;9.934;2022-10-16T17:36:03;16.70;99.90
15450;DHT22;7826;49.784;9.934;2022-10-16T17:38:30;16.60;99.90
15450;DHT22;7826;49.784;9.934;2022-10-16T17:40:57;16.60;99.90
15450;DHT22;7826;49.784;9.934;2022-10-16T17:43:25;16.60;99.90
15450;DHT22;7826;49.784;9.934;2022-10-16T17:45:51;16.50;99.90
15450;DHT22;7826;49.784;9.934;2022-10-16T17:48:20;16.50;99.90
15450;DHT22;7826;49.784;9.934;2022-10-16T17:50:46;16.40;99.90
15450;DHT22;7826;49.784;9.934;2022-10-16T17:53:13;16.40;99.90
15450;DHT22;7826;49.784;9.934;2022-10-16T17:55:40;16.30;99.90
15450;DHT22;7826;49.784;9.934;2022-10-16T17:58:08;16.30;99.90
15450;DHT22;7826;49.784;9.934;2022-10-16T18:00:35;16.20;99.90
15450;DHT22;7826;49.784;9.934;2022-10-16T18:03:33;16.10;99.90
15450;DHT22;7826;49.784;9.934;2022-10-16T18:06:00;16.10;99.90
15450;DHT22;7826;49.784;9.934;2022-10-16T18:08:26;16.00;99.90
15450;DHT22;7826;49.784;9.934;2022-10-16T18:10:53;15.90;99.90
15450;DHT22;7826;49.784;9.934;2022-10-16T18:13:20;15.90;99.90
15450;DHT22;7826;49.784;9.934;2022-10-16T18:15:46;15.80;99.90
15450;DHT22;7826;49.784;9.934;2022-10-16T18:18:20;15.70;99.90
15450;DHT22;7826;49.784;9.934;2022-10-16T18:20:58;15.70;99.90
15450;DHT22;7826;49.784;9.934;2022-10-16T18:23:25;15.60;99.90
15450;DHT22;7826;49.784;9.934;2022-10-16T18:25:51;15.60;99.90
15450;DHT22;7826;49.784;9.934;2022-10-16T18:28:18;15.50;99.90